createdAt,value
2023-01-06T00:02:25.211Z,98180.13
2023-01-06T00:04:51.965Z,98170.94
2023-01-06T00:07:18.658Z,98169.88
2023-01-06T00:09:45.316Z,98159.06
2023-01-06T00:12:11.974Z,98159.09
2023-01-06T00:14:38.653Z,98161.81
2023-01-06T00:17:06.712Z,98165.03
2023-01-06T00:19:33.370Z,98165.03
2023-01-06T00:22:00.109Z,98163.94
2023-01-06T00:24:26.829Z,98156.41
2023-01-06T00:26:53.465Z,98154.25
2023-01-06T00:29:20.106Z,98149.38
2023-01-06T00:31:46.848Z,98156.69
2023-01-06T00:34:15.128Z,98149.09
2023-01-06T00:36:41.837Z,98145.06
2023-01-06T00:39:08.557Z,98143.16
2023-01-06T00:41:53.699Z,98136.41
2023-01-06T00:44:20.398Z,98122.41
2023-01-06T00:46:47.131Z,98136.97
2023-01-06T00:49:15.530Z,98133.19
2023-01-06T00:51:42.557Z,98129.41
2023-01-06T00:54:12.381Z,98148.84
2023-01-06T00:56:40.193Z,98148.84
2023-01-06T00:59:07.162Z,98143.72
2023-01-06T01:01:35.188Z,98148.56
2023-01-06T01:04:02.409Z,98152.06
2023-01-06T01:06:30.441Z,98148.03
2023-01-06T01:08:59.591Z,98152.34
2023-01-06T01:11:45.337Z,98146.72
2023-01-06T01:14:12.947Z,98133.19
2023-01-06T01:16:39.788Z,98136.72
2023-01-06T01:19:06.959Z,98146.97
2023-01-06T01:21:35.056Z,98134.25
2023-01-06T01:24:01.823Z,98140.72
2023-01-06T01:26:28.478Z,98133.75
2023-01-06T01:28:55.206Z,98136.16
2023-01-06T01:31:21.945Z,98147.75
2023-01-06T01:33:49.360Z,98152.34
2023-01-06T01:36:18.204Z,98145.88
2023-01-06T01:38:46.260Z,98143.72
2023-01-06T01:41:15.709Z,98152.34
2023-01-06T01:43:47.633Z,98146.97
2023-01-06T01:46:18.467Z,98153.69
2023-01-06T01:48:46.109Z,98142.66
2023-01-06T01:51:16.407Z,98142.94
2023-01-06T01:53:48.415Z,98148.56
2023-01-06T01:56:18.895Z,98149.13
2023-01-06T01:58:50.931Z,98146.69
2023-01-06T02:01:18.048Z,98148.81
2023-01-06T02:03:48.236Z,98146.13
2023-01-06T02:06:20.811Z,98142.63
2023-01-06T02:08:53.452Z,98151.25
2023-01-06T02:11:20.500Z,98144.25
2023-01-06T02:13:52.024Z,98139.66
2023-01-06T02:16:23.926Z,62402.38
2023-01-06T02:18:57.993Z,62402.38
2023-01-06T02:21:38.221Z,98134.22
2023-01-06T02:24:45.811Z,98135.31
2023-01-06T02:27:30.957Z,98145.56
2023-01-06T02:30:38.287Z,98136.94
2023-01-06T02:33:16.104Z,98130.72
2023-01-06T02:35:56.659Z,98125.06
2023-01-06T02:38:34.731Z,98125.31
2023-01-06T02:41:12.446Z,98125.06
2023-01-06T02:43:47.014Z,98120.75
2023-01-06T02:46:26.899Z,98122.09
2023-01-06T02:49:07.203Z,98122.09
2023-01-06T02:51:43.286Z,98113.72
2023-01-06T02:54:20.234Z,98113.72
2023-01-06T02:56:52.835Z,98104.28
2023-01-06T02:59:26.150Z,98104.53
2023-01-06T03:01:54.704Z,98102.94
2023-01-06T03:04:26.556Z,98103.16
2023-01-06T03:06:56.892Z,98096.94
2023-01-06T03:09:28.686Z,98106.94
2023-01-06T03:11:55.567Z,98107.72
2023-01-06T03:14:26.009Z,98102.38
2023-01-06T03:16:53.684Z,98103.41
2023-01-06T03:19:21.026Z,98099.63
2023-01-06T03:21:51.064Z,98086.44
2023-01-06T03:24:17.883Z,98082.84
2023-01-06T03:26:46.843Z,98074.78
2023-01-06T03:29:16.706Z,98068.81
2023-01-06T03:31:52.956Z,98074.72
2023-01-06T03:34:26.612Z,98072.56
2023-01-06T03:37:04.935Z,98070.13
2023-01-06T03:39:37.486Z,98065.00
2023-01-06T03:42:40.288Z,98060.13
2023-01-06T03:45:19.323Z,98061.53
2023-01-06T03:47:53.731Z,98056.41
2023-01-06T03:50:24.613Z,98052.66
2023-01-06T03:52:58.538Z,98057.25
2023-01-06T03:55:29.876Z,98065.34
2023-01-06T03:57:59.333Z,98064.22
2023-01-06T04:00:28.941Z,98054.78
2023-01-06T04:02:56.045Z,98075.00
2023-01-06T04:05:24.724Z,98064.50
2023-01-06T04:07:53.242Z,98063.38
2023-01-06T04:10:21.974Z,98063.38
2023-01-06T04:12:49.277Z,98072.31
2023-01-06T04:15:18.230Z,98076.34
2023-01-06T04:17:45.585Z,98068.78
2023-01-06T04:20:14.885Z,98072.03
2023-01-06T04:22:41.838Z,98067.97
2023-01-06T04:25:10.788Z,98062.31
2023-01-06T04:27:37.532Z,98066.34
2023-01-06T04:30:19.491Z,98068.78
2023-01-06T04:32:46.204Z,98064.44
2023-01-06T04:35:12.912Z,98069.59
2023-01-06T04:37:39.514Z,98065.56
2023-01-06T04:40:07.763Z,98068.25
2023-01-06T04:42:54.322Z,98075.28
2023-01-06T04:45:21.346Z,98071.75
2023-01-06T04:47:48.133Z,98069.84
2023-01-06T04:50:15.086Z,98072.03
2023-01-06T04:52:41.800Z,98072.81
2023-01-06T04:55:09.525Z,98065.25
2023-01-06T04:57:37.605Z,98076.84
2023-01-06T05:00:05.554Z,98074.66
2023-01-06T05:02:33.125Z,98066.56
2023-01-06T05:04:59.903Z,98069.75
2023-01-06T05:07:26.623Z,98066.50
2023-01-06T05:09:53.301Z,98067.84
2023-01-06T05:12:20.076Z,98070.81
2023-01-06T05:14:48.093Z,98074.34
2023-01-06T05:17:14.819Z,98061.13
2023-01-06T05:19:43.060Z,98053.31
2023-01-06T05:22:10.184Z,98061.94
2023-01-06T05:24:36.974Z,98057.34
2023-01-06T05:27:03.746Z,98072.94
2023-01-06T05:29:30.568Z,98065.97
2023-01-06T05:31:58.963Z,98075.94
2023-01-06T05:34:26.002Z,98071.91
2023-01-06T05:36:52.729Z,98077.03
2023-01-06T05:39:19.517Z,98077.56
2023-01-06T05:41:46.269Z,98080.50
2023-01-06T05:44:12.946Z,98071.34
2023-01-06T05:46:39.686Z,98081.28
2023-01-06T05:49:09.198Z,98072.13
2023-01-06T05:51:35.889Z,98072.13
2023-01-06T05:54:02.825Z,98078.56
2023-01-06T05:56:29.738Z,98075.88
2023-01-06T05:58:56.463Z,98083.41
2023-01-06T06:01:25.080Z,98078.81
2023-01-06T06:03:52.764Z,98069.41
2023-01-06T06:06:22.188Z,98063.22
2023-01-06T06:08:49.051Z,98066.41
2023-01-06T06:11:17.995Z,98082.34
2023-01-06T06:13:48.798Z,98076.97
2023-01-06T06:16:17.143Z,98087.75
2023-01-06T06:18:44.072Z,98083.44
2023-01-06T06:21:14.634Z,98064.06
2023-01-06T06:23:43.139Z,98073.50
2023-01-06T06:26:14.611Z,98081.56
2023-01-06T06:28:42.338Z,98074.00
2023-01-06T06:31:11.130Z,98079.38
2023-01-06T06:33:38.112Z,98088.22
2023-01-06T06:36:06.612Z,98079.38
2023-01-06T06:38:33.357Z,98076.94
2023-01-06T06:41:01.412Z,98079.66
2023-01-06T06:43:29.240Z,98078.31
2023-01-06T06:45:56.079Z,98080.22
2023-01-06T06:48:22.789Z,98074.00
2023-01-06T06:50:56.812Z,98083.69
2023-01-06T06:53:23.574Z,98083.91
2023-01-06T06:55:50.345Z,98080.69
2023-01-06T06:58:18.459Z,98079.88
2023-01-06T07:00:45.256Z,98065.13
2023-01-06T07:03:12.042Z,98071.28
2023-01-06T07:05:39.135Z,98073.44
2023-01-06T07:08:06.546Z,98068.03
2023-01-06T07:10:33.803Z,98069.16
2023-01-06T07:13:00.476Z,98071.28
2023-01-06T07:15:28.660Z,98084.75
2023-01-06T07:17:55.482Z,98080.47
2023-01-06T07:20:22.208Z,98073.44
2023-01-06T07:22:48.853Z,98084.19
2023-01-06T07:25:15.575Z,98083.69
2023-01-06T07:27:42.191Z,98086.38
2023-01-06T07:30:09.802Z,98101.69
2023-01-06T07:32:37.943Z,98103.88
2023-01-06T07:35:05.283Z,98100.13
2023-01-06T07:37:31.992Z,98097.94
2023-01-06T07:39:58.743Z,98104.13
2023-01-06T07:42:25.520Z,98103.06
2023-01-06T07:44:52.211Z,98103.84
2023-01-06T07:47:18.848Z,98108.44
2023-01-06T07:49:47.004Z,98107.09
2023-01-06T07:52:13.766Z,98111.13
2023-01-06T07:54:41.153Z,98105.25
2023-01-06T07:57:07.940Z,98102.00
2023-01-06T07:59:34.939Z,98108.72
2023-01-06T08:02:01.781Z,62402.38
2023-01-06T08:04:28.609Z,62402.38
2023-01-06T08:06:56.730Z,62402.38
2023-01-06T08:09:23.486Z,98108.72
2023-01-06T08:11:50.154Z,98102.00
2023-01-06T08:14:16.932Z,98117.09
2023-01-06T08:16:43.802Z,98110.06
2023-01-06T08:19:11.840Z,98118.97
2023-01-06T08:21:38.592Z,98118.72
2023-01-06T08:24:07.761Z,98107.16
2023-01-06T08:26:34.442Z,98101.78
2023-01-06T08:29:01.469Z,98107.97
2023-01-06T08:31:28.225Z,98113.06
2023-01-06T08:33:54.948Z,98114.19
2023-01-06T08:36:23.700Z,98117.91
2023-01-06T08:38:50.976Z,98116.84
2023-01-06T08:41:19.497Z,98108.69
2023-01-06T08:43:47.131Z,98108.66
2023-01-06T08:46:16.508Z,98113.19
2023-01-06T08:48:43.682Z,98112.66
2023-01-06T08:51:13.040Z,98116.91
2023-01-06T08:53:40.020Z,98120.41
2023-01-06T08:56:12.780Z,98125.78
2023-01-06T08:58:41.964Z,98109.38
2023-01-06T09:01:16.436Z,98109.88
2023-01-06T09:03:43.460Z,98115.81
2023-01-06T09:06:10.349Z,98114.47
2023-01-06T09:08:37.941Z,98114.22
2023-01-06T09:11:05.506Z,98116.41
2023-01-06T09:13:32.271Z,98119.41
2023-01-06T09:16:00.475Z,98127.16
2023-01-06T09:18:27.285Z,98135.81
2023-01-06T09:20:54.004Z,98134.13
2023-01-06T09:23:22.090Z,98147.56
2023-01-06T09:25:48.864Z,98139.97
2023-01-06T09:28:15.581Z,98148.34
2023-01-06T09:30:43.197Z,98148.03
2023-01-06T09:33:11.280Z,98149.06
2023-01-06T09:35:38.045Z,98161.25
2023-01-06T09:38:04.770Z,98152.59
2023-01-06T09:40:43.649Z,98162.81
2023-01-06T09:43:20.109Z,98153.44
2023-01-06T09:45:52.931Z,98153.44
2023-01-06T09:48:23.955Z,98151.53
2023-01-06T09:50:55.551Z,98150.75
2023-01-06T09:53:26.064Z,98155.31
2023-01-06T09:55:57.947Z,98156.47
2023-01-06T09:58:28.929Z,98163.75
2023-01-06T10:00:58.604Z,98158.88
2023-01-06T10:03:27.757Z,98154.88
2023-01-06T10:06:05.657Z,98155.09
2023-01-06T10:08:40.049Z,98151.91
2023-01-06T10:11:14.853Z,98150.31
2023-01-06T10:13:53.835Z,98144.97
2023-01-06T10:16:32.322Z,98153.03
2023-01-06T10:19:11.270Z,98159.25
2023-01-06T10:21:44.700Z,98145.53
2023-01-06T10:24:25.171Z,98148.22
2023-01-06T10:26:57.395Z,98145.00
2023-01-06T10:29:30.392Z,98141.50
2023-01-06T10:32:00.801Z,98134.47
2023-01-06T10:34:29.889Z,98143.66
2023-01-06T10:37:03.047Z,98123.50
2023-01-06T10:39:31.749Z,98136.97
2023-01-06T10:42:24.762Z,98128.88
2023-01-06T10:44:51.532Z,98132.13
2023-01-06T10:47:24.148Z,98128.59
2023-01-06T10:49:52.526Z,98132.13
2023-01-06T10:52:21.078Z,98107.81
2023-01-06T10:54:49.428Z,98106.47
2023-01-06T10:57:22.149Z,98099.44
2023-01-06T11:00:12.708Z,98091.34
2023-01-06T11:02:43.097Z,98103.50
2023-01-06T11:05:15.999Z,98103.78
2023-01-06T11:07:49.249Z,98105.66
2023-01-06T11:10:26.208Z,98103.25
2023-01-06T11:12:53.268Z,98102.41
2023-01-06T11:15:22.455Z,98097.56
2023-01-06T11:17:49.268Z,98088.94
2023-01-06T11:20:31.081Z,98097.00
2023-01-06T11:23:13.789Z,98090.25
2023-01-06T11:25:40.573Z,98096.47
2023-01-06T11:28:18.204Z,98077.59
2023-01-06T11:30:50.376Z,62402.38
2023-01-06T11:33:18.867Z,98079.47
2023-01-06T11:35:47.705Z,98092.97
2023-01-06T11:38:16.799Z,98093.78
2023-01-06T11:40:45.802Z,98095.66
2023-01-06T11:43:17.484Z,98095.38
2023-01-06T11:45:50.053Z,98092.91
2023-01-06T11:48:20.016Z,98083.47
2023-01-06T11:50:57.318Z,98074.84
2023-01-06T11:53:24.707Z,98081.31
2023-01-06T11:56:02.227Z,98077.78
2023-01-06T11:58:39.954Z,98075.69
2023-01-06T12:01:11.911Z,98078.38
2023-01-06T12:03:41.874Z,98078.38
2023-01-06T12:06:21.967Z,98081.59
2023-01-06T12:08:55.956Z,98064.88
2023-01-06T12:11:29.986Z,98070.53
2023-01-06T12:14:13.082Z,98076.47
2023-01-06T12:17:00.483Z,98077.31
2023-01-06T12:19:39.994Z,98083.50
2023-01-06T12:22:19.504Z,98080.81
2023-01-06T12:24:48.998Z,98074.56
2023-01-06T12:27:24.138Z,98076.44
2023-01-06T12:29:52.414Z,98062.69
2023-01-06T12:32:27.655Z,98071.63
2023-01-06T12:35:00.224Z,98072.13
2023-01-06T12:37:32.961Z,98073.22
2023-01-06T12:40:04.866Z,98076.19
2023-01-06T12:42:37.382Z,98073.75
2023-01-06T12:45:12.724Z,98065.94
2023-01-06T12:47:44.837Z,98072.16
2023-01-06T12:50:20.790Z,98067.56
2023-01-06T12:52:52.296Z,98073.53
2023-01-06T12:55:27.850Z,98072.72
2023-01-06T12:57:59.384Z,98070.00
2023-01-06T13:00:42.720Z,98073.78
2023-01-06T13:03:28.081Z,98075.94
2023-01-06T13:06:11.978Z,98079.19
2023-01-06T13:09:11.049Z,98081.59
2023-01-06T13:11:53.988Z,98087.28
2023-01-06T13:14:24.944Z,98070.00
2023-01-06T13:16:56.365Z,98080.00
2023-01-06T13:19:36.776Z,98079.47
2023-01-06T13:22:10.030Z,98070.56
2023-01-06T13:25:00.837Z,98068.38
2023-01-06T13:27:45.517Z,98068.94
2023-01-06T13:30:33.551Z,98070.53
2023-01-06T13:33:32.773Z,98078.09
2023-01-06T13:36:13.808Z,98073.53
2023-01-06T13:38:57.612Z,98078.66
2023-01-06T13:41:29.269Z,98078.66
2023-01-06T13:43:58.409Z,98085.66
2023-01-06T13:46:27.275Z,98086.22
2023-01-06T13:48:57.708Z,98088.09
2023-01-06T13:51:28.639Z,98080.53
2023-01-06T13:53:56.519Z,98077.56
2023-01-06T13:56:29.969Z,98078.34
2023-01-06T13:59:21.928Z,98080.78
2023-01-06T14:01:49.493Z,98075.94
2023-01-06T14:04:46.312Z,98070.53
2023-01-06T14:07:14.902Z,98069.16
2023-01-06T14:09:48.694Z,98079.16
2023-01-06T14:12:21.522Z,98086.44
2023-01-06T14:15:00.975Z,98081.59
2023-01-06T14:17:39.376Z,98086.47
2023-01-06T14:20:17.907Z,98085.66
2023-01-06T14:22:57.770Z,98090.25
2023-01-06T14:25:25.216Z,98087.81
2023-01-06T14:28:24.802Z,98087.53
2023-01-06T14:31:12.135Z,98084.03
2023-01-06T14:33:39.963Z,98083.50
2023-01-06T14:36:12.570Z,98085.13
2023-01-06T14:38:44.535Z,98095.94
2023-01-06T14:41:22.080Z,98098.63
2023-01-06T14:43:55.082Z,98089.72
2023-01-06T14:46:25.984Z,98090.81
2023-01-06T14:48:59.105Z,98090.81
2023-01-06T14:51:27.015Z,98093.78
2023-01-06T14:54:04.487Z,98093.22
2023-01-06T14:56:32.679Z,98100.78
2023-01-06T14:59:06.320Z,98106.47
2023-01-06T15:01:38.745Z,98101.06
2023-01-06T15:04:07.395Z,98099.72
2023-01-06T15:06:34.077Z,98100.00
2023-01-06T15:09:20.264Z,98099.75
2023-01-06T15:11:49.907Z,98094.59
2023-01-06T15:14:36.006Z,98098.91
2023-01-06T15:17:05.277Z,98102.72
2023-01-06T15:19:33.090Z,98102.16
2023-01-06T15:22:01.223Z,98103.78
2023-01-06T15:24:35.456Z,98101.06
2023-01-06T15:27:07.569Z,98105.66
2023-01-06T15:29:36.193Z,98104.03
2023-01-06T15:32:04.695Z,98105.94
2023-01-06T15:34:40.477Z,98102.97
2023-01-06T15:37:15.037Z,98108.34
2023-01-06T15:39:42.936Z,98101.59
2023-01-06T15:42:13.061Z,98104.56
2023-01-06T15:44:41.531Z,98100.53
2023-01-06T15:47:20.255Z,98104.81
2023-01-06T15:49:53.477Z,98111.84
2023-01-06T15:52:25.566Z,98115.34
2023-01-06T15:54:54.469Z,98113.75
2023-01-06T15:57:22.047Z,98120.75
2023-01-06T15:59:58.463Z,98127.78
2023-01-06T16:02:28.858Z,98132.38
2023-01-06T16:04:55.880Z,98128.63
2023-01-06T16:07:34.727Z,98128.59
2023-01-06T16:10:01.947Z,98124.53
2023-01-06T16:12:28.718Z,98129.66
2023-01-06T16:14:56.963Z,98128.84
2023-01-06T16:17:30.084Z,98128.59
2023-01-06T16:20:01.551Z,98131.56
2023-01-06T16:22:33.695Z,98128.59
2023-01-06T16:25:02.527Z,98117.53
2023-01-06T16:27:29.418Z,98119.41
2023-01-06T16:30:21.234Z,98119.94
2023-01-06T16:32:48.755Z,98127.25
2023-01-06T16:35:17.242Z,98134.22
2023-01-06T16:37:45.025Z,98131.25
2023-01-06T16:40:13.184Z,98134.22
2023-01-06T16:42:40.467Z,98127.22
2023-01-06T16:45:17.779Z,98128.28
2023-01-06T16:47:46.450Z,98118.31
2023-01-06T16:50:17.425Z,98114.28
2023-01-06T16:52:46.746Z,98107.78
2023-01-06T16:55:15.400Z,98096.22
2023-01-06T16:57:42.355Z,98092.16
2023-01-06T17:00:14.970Z,98097.56
2023-01-06T17:02:42.348Z,98100.50
2023-01-06T17:05:24.139Z,98108.84
2023-01-06T17:07:52.973Z,98106.94
2023-01-06T17:10:23.340Z,98116.38
2023-01-06T17:13:12.929Z,98120.69
2023-01-06T17:15:40.174Z,98113.69
2023-01-06T17:18:21.912Z,98120.44
2023-01-06T17:20:51.304Z,98123.13
2023-01-06T17:23:18.015Z,98118.84
2023-01-06T17:25:45.033Z,98116.66
2023-01-06T17:28:18.994Z,98121.50
2023-01-06T17:30:45.766Z,98126.66
2023-01-06T17:33:14.338Z,98131.50
2023-01-06T17:35:43.120Z,98128.78
2023-01-06T17:38:17.012Z,98135.25
2023-01-06T17:40:43.741Z,98128.78
2023-01-06T17:43:22.041Z,98133.38
2023-01-06T17:45:48.809Z,98132.84
2023-01-06T17:48:15.984Z,98131.75
2023-01-06T17:50:46.797Z,98140.91
2023-01-06T17:53:35.337Z,98137.66
2023-01-06T17:56:03.934Z,98143.34
2023-01-06T17:58:32.151Z,98155.47
2023-01-06T18:01:00.465Z,98158.97
2023-01-06T18:03:30.953Z,98162.16
2023-01-06T18:06:17.529Z,98160.31
2023-01-06T18:08:46.809Z,98159.88
2023-01-06T18:11:34.327Z,98154.19
2023-01-06T18:14:15.586Z,98157.41
2023-01-06T18:16:45.233Z,98164.94
2023-01-06T18:19:31.609Z,98171.38
2023-01-06T18:21:58.906Z,98170.88
2023-01-06T18:24:32.183Z,98177.06
2023-01-06T18:27:01.053Z,98171.09
2023-01-06T18:29:32.459Z,98173.25
2023-01-06T18:32:22.161Z,98167.03
2023-01-06T18:34:50.183Z,98173.53
2023-01-06T18:37:17.705Z,98171.09
2023-01-06T18:39:48.304Z,98169.19
2023-01-06T18:42:26.486Z,98168.63
2023-01-06T18:45:01.667Z,98169.69
2023-01-06T18:47:31.361Z,62402.38
2023-01-06T18:50:19.082Z,98169.69
2023-01-06T18:52:46.553Z,98175.88
2023-01-06T18:55:20.091Z,98170.50
2023-01-06T18:57:54.686Z,98173.19
2023-01-06T19:00:36.188Z,98173.78
2023-01-06T19:03:29.052Z,98173.47
2023-01-06T19:06:17.576Z,98177.22
2023-01-06T19:08:46.624Z,98179.94
2023-01-06T19:11:17.602Z,98167.91
2023-01-06T19:13:46.131Z,98172.03
2023-01-06T19:16:27.184Z,98173.63
2023-01-06T19:18:56.250Z,98172.50
2023-01-06T19:21:23.780Z,98173.28
2023-01-06T19:23:50.624Z,98168.16
2023-01-06T19:26:31.567Z,98160.06
2023-01-06T19:29:01.861Z,98165.19
2023-01-06T19:31:30.604Z,98171.38
2023-01-06T19:33:59.568Z,98162.44
2023-01-06T19:36:41.405Z,98167.56
2023-01-06T19:39:30.666Z,98170.25
2023-01-06T19:42:22.784Z,98169.75
2023-01-06T19:44:53.905Z,98157.63
2023-01-06T19:47:24.380Z,98169.25
2023-01-06T19:49:55.780Z,98161.16
2023-01-06T19:52:33.391Z,98158.16
2023-01-06T19:55:16.297Z,98157.63
2023-01-06T19:57:48.670Z,98158.41
2023-01-06T20:00:27.710Z,98153.84
2023-01-06T20:02:57.625Z,98158.41
2023-01-06T20:05:25.261Z,98158.41
2023-01-06T20:07:52.316Z,98154.59
2023-01-06T20:10:20.517Z,98163.19
2023-01-06T20:12:49.002Z,98155.94
2023-01-06T20:15:16.368Z,98161.06
2023-01-06T20:17:43.086Z,98158.34
2023-01-06T20:20:10.960Z,98161.28
2023-01-06T20:22:37.707Z,98154.53
2023-01-06T20:25:04.960Z,98165.88
2023-01-06T20:27:31.710Z,98163.97
2023-01-06T20:29:59.793Z,98156.66
2023-01-06T20:32:26.527Z,98157.19
2023-01-06T20:34:53.340Z,98151.25
2023-01-06T20:37:20.267Z,98154.47
2023-01-06T20:39:47.016Z,98150.41
2023-01-06T20:42:13.758Z,98149.06
2023-01-06T20:44:43.481Z,98155.19
2023-01-06T20:47:11.507Z,98148.06
2023-01-06T20:49:39.050Z,98145.38
2023-01-06T20:52:05.764Z,98144.78
2023-01-06T20:54:32.438Z,98151.25
2023-01-06T20:56:59.056Z,98160.94
2023-01-06T20:59:25.914Z,98166.34
2023-01-06T21:01:52.769Z,98162.81
2023-01-06T21:04:21.215Z,98167.66
2023-01-06T21:06:48.259Z,98164.44
2023-01-06T21:09:14.968Z,98160.13
2023-01-06T21:11:42.010Z,98158.78
2023-01-06T21:14:08.695Z,98152.88
2023-01-06T21:16:36.069Z,98154.47
2023-01-06T21:19:02.903Z,98150.16
2023-01-06T21:21:30.993Z,98152.03
2023-01-06T21:24:00.300Z,98148.28
2023-01-06T21:26:27.218Z,98154.16
2023-01-06T21:28:54.035Z,98164.88
2023-01-06T21:31:22.373Z,98160.97
2023-01-06T21:33:49.196Z,98156.88
2023-01-06T21:36:15.940Z,98155.19
2023-01-06T21:38:44.094Z,98157.22
2023-01-06T21:41:29.303Z,98155.00
2023-01-06T21:43:56.015Z,98150.88
2023-01-06T21:46:22.972Z,98157.09
2023-01-06T21:48:49.737Z,98153.81
2023-01-06T21:51:16.714Z,98150.25
2023-01-06T21:53:45.696Z,98150.47
2023-01-06T21:56:13.522Z,98144.00
2023-01-06T21:58:40.308Z,62402.38
2023-01-06T22:01:07.322Z,62402.38
2023-01-06T22:03:34.463Z,62402.38
2023-01-06T22:06:03.430Z,98150.94
2023-01-06T22:08:32.572Z,98141.78
2023-01-06T22:11:01.502Z,98142.38
2023-01-06T22:13:29.048Z,98137.53
2023-01-06T22:15:55.762Z,98132.94
2023-01-06T22:18:22.717Z,98133.13
2023-01-06T22:20:49.993Z,98132.84
2023-01-06T22:23:23.202Z,98130.72
2023-01-06T22:25:51.398Z,98132.56
2023-01-06T22:28:19.599Z,98131.50
2023-01-06T22:30:46.360Z,98138.78
2023-01-06T22:33:15.438Z,98135.81
2023-01-06T22:35:42.102Z,98137.72
2023-01-06T22:38:09.230Z,98142.28
2023-01-06T22:40:36.077Z,98156.34
2023-01-06T22:43:04.069Z,98156.13
2023-01-06T22:45:33.934Z,98166.53
2023-01-06T22:48:00.759Z,98171.81
2023-01-06T22:50:27.580Z,98171.47
2023-01-06T22:52:55.537Z,98173.28
2023-01-06T22:55:22.587Z,98167.88
2023-01-06T22:57:49.310Z,98174.25
2023-01-06T23:00:18.401Z,98169.66
2023-01-06T23:02:46.685Z,98165.59
2023-01-06T23:05:13.604Z,98161.28
2023-01-06T23:07:41.973Z,98163.38
2023-01-06T23:10:11.105Z,98164.97
2023-01-06T23:12:40.193Z,98167.16
2023-01-06T23:15:08.455Z,98158.28
2023-01-06T23:17:36.836Z,98156.41
2023-01-06T23:20:05.941Z,98153.25
2023-01-06T23:22:32.857Z,98155.38
2023-01-06T23:24:59.535Z,98144.91
2023-01-06T23:27:26.237Z,98146.50
2023-01-06T23:29:52.924Z,98140.25
2023-01-06T23:32:20.290Z,62402.38
2023-01-06T23:34:47.652Z,62402.38
2023-01-06T23:37:15.807Z,62402.38
2023-01-06T23:39:42.594Z,62402.38
2023-01-06T23:42:09.308Z,62402.38
2023-01-06T23:44:35.977Z,62402.38
2023-01-06T23:47:02.717Z,62402.38
2023-01-06T23:49:29.506Z,62402.38
2023-01-06T23:51:56.179Z,62402.38
2023-01-06T23:54:24.495Z,62402.38
2023-01-06T23:56:51.319Z,62402.38
2023-01-06T23:59:18.224Z,62402.38
